Terminal Aerodrome Forecast
Issued by NWS Jackson, MS

Home | Current Version | Previous Version | Text Only | Print | Product List | Glossary On
Versions: 1 2 3 4 5 6 7 8 9 10 11 12 13 14 15 16 17 18 19
000
FTUS44 KJAN 250541
TAFGLH
TAF
KGLH 250541Z 2506/2606 31011G18KT 5SM -RA BR OVC050
     FM250800 32009KT 6SM -RA BR BKN050 OVC090
     FM251100 36006KT P6SM OVC250
     FM251600 07008KT P6SM SCT030 OVC150
     FM252200 09005KT P6SM VCSH OVC090
     FM260200 10005KT 3SM BR VCSH BKN025 OVC050=

USA.gov is the U.S. government's official web portal to all federal, state and local government web resources and services.